createdAt,value
2023-02-24T00:02:04.142Z,32.83
2023-02-24T00:04:39.836Z,29.88
2023-02-24T00:07:08.341Z,34.83
2023-02-24T00:09:35.068Z,31.67
2023-02-24T00:12:06.276Z,32.42
2023-02-24T00:14:36.606Z,32.00
2023-02-24T00:17:03.991Z,34.08
2023-02-24T00:19:32.783Z,34.42
2023-02-24T00:22:00.975Z,37.63
2023-02-24T00:24:28.205Z,33.78
2023-02-24T00:26:57.707Z,38.53
2023-02-24T00:29:25.144Z,36.45
2023-02-24T00:32:02.369Z,43.40
2023-02-24T00:34:35.311Z,36.95
2023-02-24T00:37:03.219Z,39.17
2023-02-24T00:39:30.689Z,37.85
2023-02-24T00:42:06.598Z,37.83
2023-02-24T00:44:40.140Z,42.80
2023-02-24T00:47:10.531Z,39.83
2023-02-24T00:49:48.300Z,37.42
2023-02-24T00:52:18.925Z,38.28
2023-02-24T00:54:47.959Z,36.58
2023-02-24T00:57:17.700Z,38.35
2023-02-24T00:59:47.734Z,37.95
2023-02-24T01:02:15.470Z,40.35
2023-02-24T01:04:44.915Z,39.67
2023-02-24T01:07:13.880Z,40.40
2023-02-24T01:09:41.889Z,40.50
2023-02-24T01:12:29.311Z,42.28
2023-02-24T01:14:56.235Z,42.67
2023-02-24T01:17:23.601Z,43.55
2023-02-24T01:19:50.755Z,42.13
2023-02-24T01:22:20.229Z,37.17
2023-02-24T01:24:47.222Z,43.75
2023-02-24T01:27:17.606Z,40.45
2023-02-24T01:29:45.639Z,42.60
2023-02-24T01:32:19.732Z,37.58
2023-02-24T01:34:48.373Z,40.15
2023-02-24T01:37:16.505Z,39.75
2023-02-24T01:39:47.224Z,39.28
2023-02-24T01:42:17.134Z,39.08
2023-02-24T01:44:43.869Z,40.08
2023-02-24T01:47:11.494Z,41.63
2023-02-24T01:49:42.389Z,36.90
2023-02-24T01:52:27.058Z,42.08
2023-02-24T01:54:55.239Z,37.60
2023-02-24T01:57:25.736Z,36.65
2023-02-24T01:59:54.838Z,40.75
2023-02-24T02:02:23.479Z,40.67
2023-02-24T02:04:57.366Z,38.33
2023-02-24T02:07:28.506Z,39.08
2023-02-24T02:10:00.246Z,40.80
2023-02-24T02:12:29.054Z,37.65
2023-02-24T02:14:59.552Z,38.55
2023-02-24T02:17:45.064Z,43.45
2023-02-24T02:20:23.057Z,37.53
2023-02-24T02:23:10.062Z,45.35
2023-02-24T02:25:58.278Z,43.28
2023-02-24T02:28:54.145Z,42.67
2023-02-24T02:31:46.610Z,43.08
2023-02-24T02:34:27.730Z,45.72
2023-02-24T02:37:09.499Z,43.80
2023-02-24T02:39:39.274Z,40.53
2023-02-24T02:42:28.740Z,42.00
2023-02-24T02:45:05.427Z,47.13
2023-02-24T02:47:50.565Z,44.03
2023-02-24T02:50:28.117Z,42.65
2023-02-24T02:53:00.552Z,42.03
2023-02-24T02:55:42.219Z,39.70
2023-02-24T02:58:17.109Z,41.30
2023-02-24T03:00:59.020Z,43.25
2023-02-24T03:03:28.043Z,44.72
2023-02-24T03:06:04.100Z,43.97
2023-02-24T03:08:34.471Z,37.03
2023-02-24T03:11:05.667Z,44.05
2023-02-24T03:13:37.932Z,43.55
2023-02-24T03:16:06.656Z,41.85
2023-02-24T03:18:38.450Z,41.00
2023-02-24T03:21:13.219Z,41.53
2023-02-24T03:23:52.457Z,42.83
2023-02-24T03:26:31.078Z,39.38
2023-02-24T03:29:24.443Z,38.90
2023-02-24T03:32:02.080Z,41.08
2023-02-24T03:34:31.864Z,42.65
2023-02-24T03:36:58.956Z,47.00
2023-02-24T03:39:26.355Z,37.60
2023-02-24T03:42:19.458Z,44.20
2023-02-24T03:44:47.084Z,42.58
2023-02-24T03:47:20.323Z,43.25
2023-02-24T03:49:48.527Z,45.42
2023-02-24T03:52:33.918Z,48.22
2023-02-24T03:55:06.305Z,43.30
2023-02-24T03:57:54.947Z,44.40
2023-02-24T04:00:35.289Z,45.65
2023-02-24T04:03:20.009Z,46.17
2023-02-24T04:06:20.868Z,49.65
2023-02-24T04:09:00.954Z,53.97
2023-02-24T04:11:58.244Z,46.05
2023-02-24T04:14:33.262Z,47.55
2023-02-24T04:17:08.034Z,48.05
2023-02-24T04:19:40.582Z,48.67
2023-02-24T04:22:10.736Z,50.53
2023-02-24T04:24:41.659Z,50.35
2023-02-24T04:27:11.922Z,48.03
2023-02-24T04:29:52.047Z,45.83
2023-02-24T04:32:24.138Z,45.13
2023-02-24T04:34:51.013Z,44.67
2023-02-24T04:37:23.132Z,48.15
2023-02-24T04:39:51.002Z,47.60
2023-02-24T04:42:25.995Z,49.38
2023-02-24T04:44:53.879Z,49.60
2023-02-24T04:47:21.054Z,47.05
2023-02-24T04:49:48.090Z,45.50
2023-02-24T04:52:15.993Z,45.38
2023-02-24T04:54:44.555Z,46.45
2023-02-24T04:57:12.779Z,47.22
2023-02-24T04:59:40.773Z,47.60
2023-02-24T05:02:07.816Z,48.10
2023-02-24T05:04:38.830Z,49.65
2023-02-24T05:07:05.813Z,48.35
2023-02-24T05:09:32.615Z,53.47
2023-02-24T05:12:00.372Z,53.25
2023-02-24T05:14:27.749Z,50.78
2023-02-24T05:17:00.044Z,50.38
2023-02-24T05:19:45.342Z,54.22
2023-02-24T05:22:14.558Z,56.88
2023-02-24T05:24:41.328Z,54.00
2023-02-24T05:27:08.622Z,56.38
2023-02-24T05:29:36.105Z,54.60
2023-02-24T05:32:04.401Z,54.17
2023-02-24T05:34:33.268Z,55.60
2023-02-24T05:37:01.878Z,52.80
2023-02-24T05:39:28.786Z,56.25
2023-02-24T05:41:57.242Z,53.97
2023-02-24T05:44:26.267Z,50.25
2023-02-24T05:46:58.821Z,58.27
2023-02-24T05:49:33.726Z,54.65
2023-02-24T05:52:07.780Z,55.20
2023-02-24T05:54:41.121Z,55.42
2023-02-24T05:57:13.505Z,58.50
2023-02-24T05:59:41.667Z,55.88
2023-02-24T06:02:11.359Z,53.20
2023-02-24T06:04:40.300Z,55.78
2023-02-24T06:07:19.313Z,63.63
2023-02-24T06:09:50.135Z,58.22
2023-02-24T06:12:18.273Z,57.90
2023-02-24T06:14:45.226Z,56.05
2023-02-24T06:17:12.198Z,52.85
2023-02-24T06:19:41.209Z,60.92
2023-02-24T06:22:11.763Z,57.40
2023-02-24T06:24:39.424Z,52.92
2023-02-24T06:27:10.486Z,59.03
2023-02-24T06:29:38.175Z,55.92
2023-02-24T06:32:11.522Z,52.83
2023-02-24T06:34:39.804Z,58.60
2023-02-24T06:37:10.563Z,56.25
2023-02-24T06:39:37.327Z,57.85
2023-02-24T06:42:05.186Z,58.63
2023-02-24T06:44:33.889Z,57.35
2023-02-24T06:47:01.133Z,60.97
2023-02-24T06:49:28.576Z,65.07
2023-02-24T06:51:56.196Z,62.60
2023-02-24T06:54:25.758Z,65.10
2023-02-24T06:56:52.523Z,63.20
2023-02-24T06:59:21.968Z,66.82
2023-02-24T07:01:49.451Z,61.95
2023-02-24T07:04:17.364Z,68.93
2023-02-24T07:06:47.849Z,61.53
2023-02-24T07:09:16.159Z,63.83
2023-02-24T07:11:46.909Z,61.30
2023-02-24T07:14:14.194Z,59.17
2023-02-24T07:16:45.339Z,62.35
2023-02-24T07:19:14.488Z,68.63
2023-02-24T07:21:50.060Z,61.65
2023-02-24T07:24:24.977Z,62.05
2023-02-24T07:27:00.856Z,58.88
2023-02-24T07:29:30.919Z,61.63
2023-02-24T07:34:32.029Z,64.50
2023-02-24T07:36:58.776Z,62.80
2023-02-24T07:39:26.048Z,59.40
2023-02-24T07:41:57.251Z,57.35
2023-02-24T07:44:24.563Z,62.80
2023-02-24T07:46:52.002Z,62.83
2023-02-24T07:49:21.342Z,57.05
2023-02-24T07:51:53.003Z,59.70
2023-02-24T07:54:21.791Z,59.97
2023-02-24T07:56:56.712Z,60.10
2023-02-24T07:59:32.687Z,54.60
2023-02-24T08:02:04.653Z,62.13
2023-02-24T08:04:33.203Z,57.85
2023-02-24T08:07:03.476Z,59.38
2023-02-24T08:09:45.470Z,57.25
2023-02-24T08:12:18.111Z,62.45
2023-02-24T08:14:51.018Z,56.67
2023-02-24T08:17:20.061Z,57.65
2023-02-24T08:20:12.095Z,56.88
2023-02-24T08:22:47.185Z,54.97
2023-02-24T08:25:19.179Z,53.15
2023-02-24T08:28:06.884Z,54.13
2023-02-24T08:30:40.177Z,57.17
2023-02-24T08:33:11.491Z,58.70
2023-02-24T08:35:45.116Z,54.03
2023-02-24T08:38:16.372Z,51.85
2023-02-24T08:40:50.852Z,55.70
2023-02-24T08:43:30.093Z,57.55
2023-02-24T08:46:03.788Z,51.97
2023-02-24T08:48:39.725Z,57.60
2023-02-24T08:51:22.902Z,54.13
2023-02-24T08:53:55.656Z,51.72
2023-02-24T08:56:26.095Z,53.13
2023-02-24T08:59:05.672Z,50.67
2023-02-24T09:01:38.636Z,54.88
2023-02-24T09:04:09.015Z,52.55
2023-02-24T09:06:44.594Z,58.22
2023-02-24T09:09:18.177Z,51.45
2023-02-24T09:11:47.643Z,53.28
2023-02-24T09:14:26.514Z,51.05
2023-02-24T09:17:02.167Z,52.70
2023-02-24T09:19:41.014Z,51.33
2023-02-24T09:22:29.738Z,56.67
2023-02-24T09:25:18.236Z,51.10
2023-02-24T09:27:55.344Z,51.67
2023-02-24T09:30:36.931Z,49.72
2023-02-24T09:33:18.136Z,49.53
2023-02-24T09:35:48.702Z,48.50
2023-02-24T09:38:17.732Z,51.60
2023-02-24T09:40:49.302Z,49.97
2023-02-24T09:43:18.204Z,49.63
2023-02-24T09:46:14.548Z,51.30
2023-02-24T09:48:43.981Z,50.42
2023-02-24T09:51:23.007Z,50.47
2023-02-24T09:53:53.895Z,50.90
2023-02-24T09:56:22.752Z,51.75
2023-02-24T09:59:12.712Z,49.50
2023-02-24T10:02:12.271Z,48.08
2023-02-24T10:05:07.568Z,50.13
2023-02-24T10:07:42.046Z,46.35
2023-02-24T10:10:19.934Z,48.10
2023-02-24T10:12:58.406Z,42.63
2023-02-24T10:15:56.977Z,53.47
2023-02-24T10:18:42.372Z,44.78
2023-02-24T10:21:48.482Z,43.97
2023-02-24T10:24:47.326Z,45.83
2023-02-24T10:27:17.642Z,41.47
2023-02-24T10:29:47.560Z,44.70
2023-02-24T10:32:18.833Z,42.35
2023-02-24T10:34:47.379Z,41.97
2023-02-24T10:37:27.568Z,40.95
2023-02-24T10:40:09.996Z,39.45
2023-02-24T10:42:45.854Z,41.90
2023-02-24T10:45:27.415Z,36.92
2023-02-24T10:47:59.469Z,44.47
2023-02-24T10:50:32.556Z,37.97
2023-02-24T10:53:11.425Z,37.90
2023-02-24T10:55:48.080Z,42.53
2023-02-24T10:58:28.232Z,39.92
2023-02-24T11:01:40.447Z,41.35
2023-02-24T11:04:33.183Z,36.90
2023-02-24T11:07:11.985Z,35.83
2023-02-24T11:09:53.047Z,37.88
2023-02-24T11:12:42.209Z,37.05
2023-02-24T11:15:41.040Z,33.85
2023-02-24T11:18:19.490Z,32.28
2023-02-24T11:21:02.579Z,34.30
2023-02-24T11:23:31.147Z,32.38
2023-02-24T11:26:22.390Z,37.60
2023-02-24T11:29:24.356Z,35.75
2023-02-24T11:32:36.571Z,36.88
2023-02-24T11:35:09.547Z,33.13
2023-02-24T11:37:53.205Z,33.70
2023-02-24T11:40:30.915Z,39.38
2023-02-24T11:43:07.406Z,34.88
2023-02-24T11:45:46.462Z,35.58
2023-02-24T11:48:17.422Z,34.30
2023-02-24T11:50:59.866Z,30.70
2023-02-24T11:53:36.942Z,33.75
2023-02-24T11:56:03.771Z,35.97
2023-02-24T11:58:39.672Z,29.13
2023-02-24T12:01:17.040Z,30.17
2023-02-24T12:04:03.040Z,30.58
2023-02-24T12:06:51.675Z,31.50
2023-02-24T12:09:26.665Z,31.25
2023-02-24T12:12:05.173Z,35.78
2023-02-24T12:14:45.805Z,28.65
2023-02-24T12:17:36.790Z,33.63
2023-02-24T12:20:23.853Z,25.75
2023-02-24T12:22:56.676Z,31.42
2023-02-24T12:25:37.917Z,33.00
2023-02-24T12:28:13.521Z,26.77
2023-02-24T12:30:58.498Z,31.10
2023-02-24T12:33:34.243Z,27.17
2023-02-24T12:36:12.482Z,27.17
2023-02-24T12:38:58.668Z,26.83
2023-02-24T12:41:42.460Z,26.50
2023-02-24T12:44:19.981Z,27.02
2023-02-24T12:46:56.053Z,25.75
2023-02-24T12:49:44.531Z,25.75
2023-02-24T12:52:42.039Z,27.05
2023-02-24T12:55:23.444Z,32.42
2023-02-24T12:58:18.031Z,31.13
2023-02-24T13:01:00.056Z,23.48
2023-02-24T13:03:39.526Z,28.73
2023-02-24T13:06:09.847Z,25.73
2023-02-24T13:08:57.162Z,24.38
2023-02-24T13:11:57.708Z,23.70
2023-02-24T13:14:36.838Z,23.40
2023-02-24T13:17:13.075Z,25.02
2023-02-24T13:19:43.261Z,26.17
2023-02-24T13:22:12.738Z,23.65
2023-02-24T13:24:43.117Z,31.02
2023-02-24T13:27:12.806Z,24.83
2023-02-24T13:29:44.856Z,26.70
2023-02-24T13:32:24.038Z,23.48
2023-02-24T13:34:54.120Z,30.10
2023-02-24T13:37:36.318Z,26.02
2023-02-24T13:40:18.506Z,22.27
2023-02-24T13:42:56.754Z,26.23
2023-02-24T13:45:26.630Z,25.10
2023-02-24T13:50:31.269Z,31.48
2023-02-24T13:53:23.670Z,27.02
2023-02-24T13:55:54.770Z,30.40
2023-02-24T13:58:43.019Z,23.05
2023-02-24T14:01:11.259Z,25.58
2023-02-24T14:03:41.361Z,25.20
2023-02-24T14:06:26.528Z,20.63
2023-02-24T14:08:57.664Z,25.40
2023-02-24T14:11:28.383Z,22.92
2023-02-24T14:13:56.867Z,25.75
2023-02-24T14:16:27.946Z,21.27
2023-02-24T14:18:57.785Z,20.73
2023-02-24T14:21:27.581Z,24.60
2023-02-24T14:26:41.627Z,16.73
2023-02-24T14:31:36.268Z,16.58
2023-02-24T14:34:09.161Z,18.95
2023-02-24T14:36:39.506Z,20.17
2023-02-24T14:39:29.920Z,15.57
2023-02-24T14:42:09.686Z,16.83
2023-02-24T14:44:48.935Z,21.73
2023-02-24T14:47:18.408Z,19.83
2023-02-24T14:50:04.753Z,21.13
2023-02-24T14:52:43.584Z,16.90
2023-02-24T14:55:15.731Z,19.67
2023-02-24T14:57:50.006Z,19.58
2023-02-24T15:00:27.322Z,21.67
2023-02-24T15:03:13.737Z,14.50
2023-02-24T15:05:44.957Z,19.70
2023-02-24T15:08:36.582Z,20.33
2023-02-24T15:11:19.891Z,19.80
2023-02-24T15:13:54.869Z,17.25
2023-02-24T15:16:26.975Z,20.15
2023-02-24T15:18:58.411Z,20.05
2023-02-24T15:21:30.329Z,18.52
2023-02-24T15:24:02.508Z,18.20
2023-02-24T15:26:33.685Z,18.40
2023-02-24T15:29:15.361Z,21.17
2023-02-24T15:31:47.805Z,20.90
2023-02-24T15:34:20.604Z,20.65
2023-02-24T15:36:50.049Z,18.23
2023-02-24T15:39:24.123Z,20.30
2023-02-24T15:41:52.430Z,20.95
2023-02-24T15:44:30.720Z,16.48
2023-02-24T15:46:59.298Z,19.23
2023-02-24T15:49:26.874Z,24.98
2023-02-24T15:51:55.472Z,21.00
2023-02-24T15:54:30.757Z,20.65
2023-02-24T15:56:59.542Z,19.88
2023-02-24T15:59:26.468Z,19.13
2023-02-24T16:01:53.553Z,22.10
2023-02-24T16:04:21.877Z,20.88
2023-02-24T16:06:55.746Z,22.15
2023-02-24T16:09:38.212Z,20.33
2023-02-24T16:12:10.394Z,19.25
2023-02-24T16:14:38.321Z,23.48
2023-02-24T16:17:09.688Z,19.92
2023-02-24T16:19:37.272Z,24.13
2023-02-24T16:22:04.268Z,22.33
2023-02-24T16:24:31.024Z,22.02
2023-02-24T16:26:57.742Z,20.80
2023-02-24T16:29:24.612Z,22.30
2023-02-24T16:31:51.506Z,19.38
2023-02-24T16:34:18.370Z,21.13
2023-02-24T16:36:45.519Z,22.95
2023-02-24T16:39:14.250Z,25.83
2023-02-24T16:41:41.200Z,24.10
2023-02-24T16:44:08.055Z,21.27
2023-02-24T16:46:38.090Z,22.67
2023-02-24T16:49:08.251Z,19.73
2023-02-24T16:51:35.594Z,19.17
2023-02-24T16:54:02.435Z,20.17
2023-02-24T16:56:29.190Z,21.38
2023-02-24T16:58:55.931Z,21.40
2023-02-24T17:01:22.731Z,23.98
2023-02-24T17:03:52.784Z,25.52
2023-02-24T17:08:49.747Z,23.20
2023-02-24T17:11:21.320Z,22.08
2023-02-24T17:13:48.099Z,23.48
2023-02-24T17:16:14.914Z,29.40
2023-02-24T17:18:41.874Z,31.05
2023-02-24T17:21:12.624Z,28.13
2023-02-24T17:23:39.424Z,26.35
2023-02-24T17:26:06.287Z,29.98
2023-02-24T17:28:33.514Z,21.52
2023-02-24T17:31:00.395Z,27.52
2023-02-24T17:33:27.190Z,29.70
2023-02-24T17:35:53.928Z,23.85
2023-02-24T17:38:23.270Z,31.85
2023-02-24T17:40:50.174Z,28.23
2023-02-24T17:43:16.931Z,26.33
2023-02-24T17:45:45.710Z,28.15
2023-02-24T17:48:14.381Z,31.23
2023-02-24T17:50:42.438Z,31.77
2023-02-24T17:53:09.285Z,26.35
2023-02-24T17:55:36.177Z,31.23
2023-02-24T17:58:03.005Z,28.10
2023-02-24T18:00:29.715Z,24.63
2023-02-24T18:02:56.557Z,26.25
2023-02-24T18:05:23.428Z,22.33
2023-02-24T18:07:50.302Z,27.95
2023-02-24T18:10:17.949Z,23.75
2023-02-24T18:12:44.696Z,28.60
2023-02-24T18:15:11.614Z,27.25
2023-02-24T18:17:38.792Z,29.95
2023-02-24T18:20:08.083Z,29.33
2023-02-24T18:22:35.823Z,30.13
2023-02-24T18:25:02.757Z,30.65
2023-02-24T18:27:29.517Z,30.85
2023-02-24T18:29:56.305Z,37.70
2023-02-24T18:32:23.168Z,35.60
2023-02-24T18:34:50.180Z,34.58
2023-02-24T18:37:17.154Z,27.73
2023-02-24T18:39:43.879Z,34.33
2023-02-24T18:42:11.690Z,29.50
2023-02-24T18:44:38.412Z,38.13
2023-02-24T18:47:09.551Z,33.90
2023-02-24T18:49:37.681Z,34.10
2023-02-24T18:52:05.483Z,34.38
2023-02-24T18:54:33.527Z,42.38
2023-02-24T18:57:00.321Z,36.42
2023-02-24T18:59:27.256Z,31.05
2023-02-24T19:01:56.790Z,34.72
2023-02-24T19:04:24.226Z,27.77
2023-02-24T19:06:50.982Z,28.30
2023-02-24T19:09:21.774Z,40.90
2023-02-24T19:11:50.418Z,29.55
2023-02-24T19:14:17.826Z,27.73
2023-02-24T19:16:45.231Z,30.23
2023-02-24T19:19:16.437Z,32.47
2023-02-24T19:21:48.319Z,28.25
2023-02-24T19:24:16.507Z,31.80
2023-02-24T19:26:44.423Z,30.17
2023-02-24T19:29:12.081Z,25.30
2023-02-24T19:31:39.321Z,32.15
2023-02-24T19:34:13.173Z,31.35
2023-02-24T19:36:41.213Z,31.45
2023-02-24T19:39:11.002Z,31.48
2023-02-24T19:41:38.425Z,29.25
2023-02-24T19:44:05.559Z,37.58
2023-02-24T19:46:34.132Z,27.45
2023-02-24T19:49:01.142Z,33.00
2023-02-24T19:51:28.094Z,35.47
2023-02-24T19:53:57.055Z,29.92
2023-02-24T19:56:25.988Z,30.30
2023-02-24T19:58:57.526Z,29.00
2023-02-24T20:01:25.899Z,30.08
2023-02-24T20:03:56.001Z,31.92
2023-02-24T20:06:25.758Z,29.17
2023-02-24T20:08:53.858Z,29.88
2023-02-24T20:11:21.782Z,29.20
2023-02-24T20:13:52.608Z,32.47
2023-02-24T20:16:21.255Z,29.27
2023-02-24T20:18:48.256Z,25.38
2023-02-24T20:21:15.086Z,30.77
2023-02-24T20:23:42.296Z,32.78
2023-02-24T20:26:16.646Z,33.00
2023-02-24T20:28:44.574Z,33.75
2023-02-24T20:31:15.379Z,33.70
2023-02-24T20:33:43.801Z,27.42
2023-02-24T20:36:13.176Z,34.65
2023-02-24T20:38:40.043Z,27.65
2023-02-24T20:41:07.123Z,33.03
2023-02-24T20:43:34.558Z,27.77
2023-02-24T20:46:14.548Z,28.83
2023-02-24T20:48:41.545Z,29.45
2023-02-24T20:51:09.396Z,30.25
2023-02-24T20:53:56.196Z,27.25
2023-02-24T20:56:25.508Z,33.40
2023-02-24T20:58:58.364Z,27.92
2023-02-24T21:01:25.829Z,32.97
2023-02-24T21:03:52.567Z,27.05
2023-02-24T21:06:19.309Z,26.90
2023-02-24T21:08:46.493Z,26.08
2023-02-24T21:11:14.576Z,35.00
2023-02-24T21:13:42.998Z,30.98
2023-02-24T21:16:12.072Z,30.48
2023-02-24T21:18:40.645Z,32.10
2023-02-24T21:21:08.607Z,30.42
2023-02-24T21:23:37.601Z,26.52
2023-02-24T21:26:05.599Z,24.08
2023-02-24T21:28:32.575Z,27.15
2023-02-24T21:30:59.481Z,25.15
2023-02-24T21:33:26.260Z,23.33
2023-02-24T21:36:03.188Z,26.13
2023-02-24T21:38:34.055Z,29.20
2023-02-24T21:41:07.392Z,26.90
2023-02-24T21:43:34.696Z,27.42
2023-02-24T21:46:02.996Z,27.48
2023-02-24T21:48:29.890Z,26.38
2023-02-24T21:51:03.678Z,32.15
2023-02-24T21:53:33.796Z,29.90
2023-02-24T21:56:04.411Z,26.30
2023-02-24T21:58:32.882Z,25.42
2023-02-24T22:00:59.779Z,25.27
2023-02-24T22:03:26.607Z,28.45
2023-02-24T22:05:54.415Z,28.27
2023-02-24T22:08:21.119Z,26.67
2023-02-24T22:10:58.713Z,28.63
2023-02-24T22:13:25.904Z,25.70
2023-02-24T22:15:52.816Z,24.27
2023-02-24T22:18:21.171Z,26.25
2023-02-24T22:20:48.072Z,26.15
2023-02-24T22:23:14.862Z,24.00
2023-02-24T22:25:41.641Z,20.75
2023-02-24T22:28:08.498Z,27.88
2023-02-24T22:30:35.324Z,26.17
2023-02-24T22:33:02.092Z,21.83
2023-02-24T22:35:28.981Z,19.75
2023-02-24T22:37:55.809Z,20.13
2023-02-24T22:40:23.707Z,22.75
2023-02-24T22:42:50.434Z,20.10
2023-02-24T22:45:17.176Z,21.63
2023-02-24T22:47:43.954Z,15.35
2023-02-24T22:50:11.309Z,18.08
2023-02-24T22:52:38.441Z,22.75
2023-02-24T22:55:05.455Z,22.17
2023-02-24T22:57:34.059Z,23.58
2023-02-24T23:00:00.950Z,22.13
2023-02-24T23:02:27.801Z,21.30
2023-02-24T23:04:54.484Z,21.13
2023-02-24T23:07:21.256Z,22.00
2023-02-24T23:09:53.116Z,19.52
2023-02-24T23:12:21.058Z,18.88
2023-02-24T23:14:47.787Z,18.75
2023-02-24T23:17:14.623Z,24.77
2023-02-24T23:19:41.348Z,19.45
2023-02-24T23:22:08.425Z,21.75
2023-02-24T23:24:36.147Z,20.10
2023-02-24T23:27:03.830Z,23.70
2023-02-24T23:29:30.844Z,20.92
2023-02-24T23:31:58.724Z,20.25
2023-02-24T23:34:26.135Z,19.75
2023-02-24T23:36:52.917Z,19.52
2023-02-24T23:39:23.137Z,23.23
2023-02-24T23:41:52.348Z,19.83
2023-02-24T23:44:19.085Z,19.92
2023-02-24T23:46:46.679Z,24.50
2023-02-24T23:49:13.406Z,17.83
2023-02-24T23:51:48.121Z,17.05
2023-02-24T23:54:17.830Z,23.05
2023-02-24T23:56:44.707Z,23.10
2023-02-24T23:59:11.954Z,21.52
